createdAt,value
2018-03-29T00:02:14.674Z,98.98
2018-03-29T00:04:43.365Z,99.54
2018-03-29T00:07:12.255Z,99.32
2018-03-29T00:09:40.775Z,98.82
2018-03-29T00:12:09.297Z,99.40
2018-03-29T00:14:37.876Z,99.61
2018-03-29T00:17:06.421Z,99.77
2018-03-29T00:19:35.061Z,99.06
2018-03-29T00:22:03.780Z,99.72
2018-03-29T00:24:32.356Z,99.79
2018-03-29T00:27:01.003Z,99.57
2018-03-29T00:29:29.488Z,99.78
2018-03-29T00:31:58.011Z,99.67
2018-03-29T00:34:26.544Z,99.79
2018-03-29T00:36:55.258Z,99.37
2018-03-29T00:39:23.896Z,99.67
2018-03-29T00:41:52.420Z,99.85
2018-03-29T00:44:21.069Z,99.51
2018-03-29T00:46:49.584Z,99.02
2018-03-29T00:49:18.048Z,99.46
2018-03-29T00:51:46.563Z,99.19
2018-03-29T00:54:15.028Z,99.03
2018-03-29T00:56:43.524Z,99.14
2018-03-29T00:59:12.042Z,98.85
2018-03-29T01:01:40.602Z,98.37
2018-03-29T01:04:09.291Z,98.29
2018-03-29T01:06:37.990Z,99.24
2018-03-29T01:09:06.800Z,100.00
2018-03-29T01:11:35.320Z,100.00
2018-03-29T01:14:03.944Z,99.93
2018-03-29T01:16:32.706Z,98.96
2018-03-29T01:19:01.200Z,98.66
2018-03-29T01:21:29.724Z,99.22
2018-03-29T01:23:58.223Z,98.96
2018-03-29T01:26:26.712Z,98.24
2018-03-29T01:28:55.245Z,98.81
2018-03-29T01:31:23.777Z,99.08
2018-03-29T01:33:52.440Z,98.28
2018-03-29T01:36:20.952Z,98.44
2018-03-29T01:38:49.437Z,98.99
2018-03-29T01:41:18.110Z,99.24
2018-03-29T01:43:46.645Z,98.36
2018-03-29T01:46:15.284Z,98.32
2018-03-29T01:48:43.763Z,98.17
2018-03-29T01:51:12.470Z,98.84
2018-03-29T01:53:41.112Z,98.12
2018-03-29T01:56:09.600Z,97.70
2018-03-29T01:58:38.276Z,97.67
2018-03-29T02:01:07.208Z,97.73
2018-03-29T02:03:35.672Z,98.20
2018-03-29T02:06:04.368Z,97.83
2018-03-29T02:08:32.844Z,98.66
2018-03-29T02:11:01.359Z,98.77
2018-03-29T02:13:29.985Z,97.74
2018-03-29T02:15:58.703Z,98.16
2018-03-29T02:18:27.223Z,97.46
2018-03-29T02:20:55.744Z,97.34
2018-03-29T02:23:24.326Z,98.25
2018-03-29T02:25:52.855Z,98.20
2018-03-29T02:28:21.483Z,98.14
2018-03-29T02:30:50.182Z,98.11
2018-03-29T02:33:18.824Z,98.16
2018-03-29T02:35:47.344Z,98.12
2018-03-29T02:38:15.884Z,98.26
2018-03-29T02:40:44.364Z,98.02
2018-03-29T02:43:13.046Z,98.12
2018-03-29T02:45:42.596Z,97.99
2018-03-29T02:48:11.082Z,97.93
2018-03-29T02:50:39.673Z,98.02
2018-03-29T02:53:08.317Z,97.92
2018-03-29T02:55:36.805Z,97.86
2018-03-29T02:58:05.494Z,97.71
2018-03-29T03:00:34.027Z,97.73
2018-03-29T03:03:02.912Z,97.81
2018-03-29T03:05:31.579Z,98.17
2018-03-29T03:08:00.219Z,97.97
2018-03-29T03:10:28.710Z,97.66
2018-03-29T03:12:57.389Z,97.70
2018-03-29T03:15:25.900Z,97.72
2018-03-29T03:17:54.385Z,97.41
2018-03-29T03:20:22.922Z,97.38
2018-03-29T03:22:51.397Z,97.48
2018-03-29T03:25:20.051Z,97.21
2018-03-29T03:27:48.532Z,96.70
2018-03-29T03:30:17.209Z,96.06
2018-03-29T03:32:45.712Z,95.83
2018-03-29T03:35:14.259Z,95.79
2018-03-29T03:37:42.840Z,94.93
2018-03-29T03:40:11.337Z,94.58
2018-03-29T03:42:40.004Z,93.81
2018-03-29T03:45:08.718Z,93.63
2018-03-29T03:47:37.584Z,93.69
2018-03-29T03:50:06.344Z,92.86
2018-03-29T03:52:34.812Z,91.92
2018-03-29T03:55:03.444Z,92.75
2018-03-29T03:57:32.108Z,92.14
2018-03-29T04:00:00.781Z,92.32
2018-03-29T04:03:28.666Z,92.81
2018-03-29T04:05:57.733Z,91.01
2018-03-29T04:08:25.988Z,91.95
2018-03-29T04:10:54.873Z,91.66
2018-03-29T04:13:23.328Z,91.95
2018-03-29T04:15:52.081Z,91.36
2018-03-29T04:18:20.913Z,91.24
2018-03-29T04:20:49.510Z,91.25
2018-03-29T04:23:18.316Z,91.36
2018-03-29T04:25:46.624Z,91.46
2018-03-29T04:28:14.912Z,90.46
2018-03-29T04:30:43.324Z,91.04
2018-03-29T04:33:12.109Z,90.82
2018-03-29T04:35:40.712Z,90.40
2018-03-29T04:38:09.200Z,88.73
2018-03-29T04:40:37.640Z,89.67
2018-03-29T04:43:06.151Z,89.17
2018-03-29T04:45:34.640Z,89.38
2018-03-29T04:48:03.120Z,89.70
2018-03-29T04:50:31.818Z,90.01
2018-03-29T04:53:00.470Z,90.68
2018-03-29T04:55:29.184Z,90.82
2018-03-29T04:57:57.579Z,90.36
2018-03-29T05:00:26.307Z,90.21
2018-03-29T05:02:56.378Z,88.67
2018-03-29T05:05:25.163Z,87.75
2018-03-29T05:07:53.986Z,87.85
2018-03-29T05:10:22.498Z,87.07
2018-03-29T05:12:50.974Z,86.53
2018-03-29T05:15:19.292Z,85.92
2018-03-29T05:17:47.638Z,85.61
2018-03-29T05:20:16.116Z,86.10
2018-03-29T05:22:44.873Z,87.44
2018-03-29T05:25:15.510Z,86.90
2018-03-29T05:27:48.244Z,88.49
2018-03-29T05:30:17.480Z,87.17
2018-03-29T05:32:46.224Z,87.52
2018-03-29T05:35:15.131Z,86.67
2018-03-29T05:37:43.946Z,86.20
2018-03-29T05:40:13.859Z,86.31
2018-03-29T05:42:42.813Z,86.61
2018-03-29T05:45:11.779Z,84.81
2018-03-29T05:47:40.730Z,85.67
2018-03-29T05:50:09.154Z,84.92
2018-03-29T05:52:37.581Z,85.24
2018-03-29T05:55:06.408Z,85.47
2018-03-29T05:57:35.577Z,84.63
2018-03-29T06:00:06.833Z,84.84
2018-03-29T06:02:35.520Z,84.76
2018-03-29T06:05:04.725Z,84.91
2018-03-29T06:07:33.513Z,84.57
2018-03-29T06:10:02.188Z,84.47
2018-03-29T06:12:30.955Z,84.49
2018-03-29T06:15:04.310Z,83.41
2018-03-29T06:17:32.879Z,83.36
2018-03-29T06:20:01.862Z,83.95
2018-03-29T06:22:31.253Z,83.06
2018-03-29T06:24:59.982Z,82.50
2018-03-29T06:27:28.460Z,82.42
2018-03-29T06:29:58.839Z,82.75
2018-03-29T06:32:28.424Z,82.74
2018-03-29T06:34:57.132Z,83.12
2018-03-29T06:37:26.965Z,83.11
2018-03-29T06:39:56.263Z,82.99
2018-03-29T06:42:25.418Z,82.19
2018-03-29T06:44:56.610Z,82.24
2018-03-29T06:47:25.132Z,81.81
2018-03-29T06:49:53.727Z,81.92
2018-03-29T06:52:22.113Z,81.66
2018-03-29T06:54:51.563Z,82.24
2018-03-29T06:57:20.459Z,81.15
2018-03-29T06:59:49.103Z,80.96
2018-03-29T07:02:19.066Z,81.01
2018-03-29T07:04:48.080Z,81.19
2018-03-29T07:07:17.568Z,80.56
2018-03-29T07:09:46.921Z,80.25
2018-03-29T07:12:16.112Z,80.79
2018-03-29T07:14:44.592Z,79.97
2018-03-29T07:17:13.057Z,79.47
2018-03-29T07:19:42.216Z,79.62
2018-03-29T07:22:11.720Z,80.88
2018-03-29T07:24:41.081Z,79.91
2018-03-29T07:27:10.586Z,78.79
2018-03-29T07:29:39.543Z,79.06
2018-03-29T07:32:08.552Z,78.25
2018-03-29T07:34:38.035Z,78.11
2018-03-29T07:37:07.620Z,78.34
2018-03-29T07:39:35.918Z,77.81
2018-03-29T07:42:04.436Z,77.18
2018-03-29T07:44:33.255Z,77.14
2018-03-29T07:47:02.215Z,77.08
2018-03-29T07:49:30.932Z,76.58
2018-03-29T07:52:00.308Z,76.46
2018-03-29T07:54:28.692Z,76.07
2018-03-29T07:56:57.009Z,76.54
2018-03-29T07:59:25.528Z,75.13
2018-03-29T08:01:54.417Z,76.98
2018-03-29T08:04:22.979Z,75.89
2018-03-29T08:06:51.410Z,75.68
2018-03-29T08:09:20.063Z,75.45
2018-03-29T08:11:48.505Z,75.92
2018-03-29T08:14:16.803Z,76.16
2018-03-29T08:16:45.657Z,75.58
2018-03-29T08:19:14.291Z,75.24
2018-03-29T08:21:42.829Z,75.29
2018-03-29T08:24:11.239Z,75.00
2018-03-29T08:26:39.905Z,75.45
2018-03-29T08:29:08.581Z,74.67
2018-03-29T08:31:37.025Z,74.42
2018-03-29T08:34:05.284Z,74.39
2018-03-29T08:36:34.096Z,74.29
2018-03-29T08:39:03.025Z,74.78
2018-03-29T08:41:31.480Z,73.58
2018-03-29T08:43:59.794Z,74.59
2018-03-29T08:46:28.593Z,74.80
2018-03-29T08:48:57.377Z,74.39
2018-03-29T08:51:25.770Z,74.79
2018-03-29T08:53:54.079Z,75.11
2018-03-29T08:56:24.051Z,74.37
2018-03-29T08:58:52.612Z,74.25
2018-03-29T09:01:21.577Z,73.35
2018-03-29T09:03:50.228Z,73.30
2018-03-29T09:06:18.980Z,73.52
2018-03-29T09:08:47.696Z,73.90
2018-03-29T09:11:16.309Z,73.08
2018-03-29T09:13:45.105Z,72.36
2018-03-29T09:16:13.692Z,71.59
2018-03-29T09:18:42.404Z,70.47
2018-03-29T09:21:11.179Z,71.17
2018-03-29T09:23:39.829Z,71.10
2018-03-29T09:26:08.361Z,71.95
2018-03-29T09:28:36.737Z,71.88
2018-03-29T09:31:05.180Z,72.04
2018-03-29T09:33:34.027Z,71.87
2018-03-29T09:36:02.680Z,73.01
2018-03-29T09:38:31.172Z,75.47
2018-03-29T09:40:59.427Z,74.57
2018-03-29T09:43:28.304Z,74.29
2018-03-29T09:45:56.918Z,73.78
2018-03-29T09:48:25.332Z,74.07
2018-03-29T09:50:53.800Z,71.82
2018-03-29T09:53:22.415Z,72.17
2018-03-29T09:55:51.133Z,70.01
2018-03-29T09:58:19.840Z,69.51
2018-03-29T10:00:48.617Z,68.56
2018-03-29T10:03:21.532Z,67.08
2018-03-29T10:05:50.063Z,67.66
2018-03-29T10:08:18.507Z,64.93
2018-03-29T10:10:46.948Z,65.00
2018-03-29T10:13:15.377Z,66.16
2018-03-29T10:15:43.956Z,67.24
2018-03-29T10:18:12.403Z,67.01
2018-03-29T10:20:40.913Z,67.83
2018-03-29T10:23:09.356Z,65.89
2018-03-29T10:25:38.021Z,63.47
2018-03-29T10:28:06.555Z,62.68
2018-03-29T10:30:35.362Z,63.16
2018-03-29T10:33:04.184Z,64.21
2018-03-29T10:35:33.004Z,63.91
2018-03-29T10:38:01.364Z,63.27
2018-03-29T10:40:29.984Z,63.82
2018-03-29T10:42:58.353Z,62.40
2018-03-29T10:45:27.184Z,62.34
2018-03-29T10:47:56.008Z,61.90
2018-03-29T10:50:24.951Z,63.76
2018-03-29T10:52:53.238Z,62.77
2018-03-29T10:55:22.109Z,63.84
2018-03-29T10:57:50.829Z,61.79
2018-03-29T11:00:19.579Z,59.70
2018-03-29T11:02:48.360Z,57.24
2018-03-29T11:05:17.082Z,58.47
2018-03-29T11:07:45.728Z,57.37
2018-03-29T11:10:14.106Z,56.42
2018-03-29T11:12:42.618Z,58.31
2018-03-29T11:15:11.238Z,58.23
2018-03-29T11:17:39.576Z,58.59
2018-03-29T11:20:08.151Z,59.47
2018-03-29T11:22:36.795Z,61.03
2018-03-29T11:25:05.278Z,60.16
2018-03-29T11:27:33.649Z,60.25
2018-03-29T11:30:02.405Z,59.88
2018-03-29T11:32:30.899Z,59.59
2018-03-29T11:34:59.620Z,60.57
2018-03-29T11:37:28.556Z,60.35
2018-03-29T11:39:57.108Z,60.45
2018-03-29T11:42:25.568Z,61.12
2018-03-29T11:44:54.247Z,61.94
2018-03-29T11:47:22.711Z,60.67
2018-03-29T11:49:51.132Z,59.46
2018-03-29T11:52:19.776Z,59.96
2018-03-29T11:54:48.290Z,60.04
2018-03-29T11:57:17.228Z,60.25
2018-03-29T11:59:45.726Z,58.71
2018-03-29T12:02:14.589Z,57.83
2018-03-29T12:04:43.018Z,59.96
2018-03-29T12:07:11.645Z,58.21
2018-03-29T12:09:39.998Z,57.49
2018-03-29T12:12:08.910Z,57.28
2018-03-29T12:14:37.520Z,57.51
2018-03-29T12:17:05.864Z,56.89
2018-03-29T12:19:34.425Z,56.25
2018-03-29T12:22:03.196Z,56.85
2018-03-29T12:24:31.647Z,57.93
2018-03-29T12:27:00.124Z,56.70
2018-03-29T12:29:28.838Z,57.22
2018-03-29T12:31:57.573Z,56.46
2018-03-29T12:34:26.175Z,56.62
2018-03-29T12:36:54.587Z,57.68
2018-03-29T12:39:23.575Z,58.07
2018-03-29T12:41:52.545Z,58.09
2018-03-29T12:44:20.917Z,57.58
2018-03-29T12:46:49.553Z,57.40
2018-03-29T12:49:18.176Z,57.58
2018-03-29T12:51:46.839Z,57.48
2018-03-29T12:54:15.673Z,57.38
2018-03-29T12:56:53.099Z,56.59
2018-03-29T12:59:21.653Z,57.12
2018-03-29T13:01:50.204Z,57.43
2018-03-29T13:04:19.023Z,55.81
2018-03-29T13:06:47.769Z,57.76
2018-03-29T13:09:16.427Z,58.89
2018-03-29T13:11:45.353Z,58.68
2018-03-29T13:14:14.264Z,59.68
2018-03-29T13:16:42.696Z,60.13
2018-03-29T13:19:11.437Z,59.78
2018-03-29T13:21:39.825Z,59.47
2018-03-29T13:24:08.369Z,58.08
2018-03-29T13:26:37.012Z,58.92
2018-03-29T13:29:05.498Z,57.61
2018-03-29T13:31:33.920Z,58.34
2018-03-29T13:34:02.432Z,58.49
2018-03-29T13:36:30.802Z,58.49
2018-03-29T13:38:59.231Z,59.41
2018-03-29T13:41:27.681Z,60.29
2018-03-29T13:43:56.188Z,59.98
2018-03-29T13:46:24.702Z,59.86
2018-03-29T13:48:53.377Z,60.49
2018-03-29T13:51:21.998Z,59.90
2018-03-29T13:53:50.812Z,61.87
2018-03-29T13:56:19.668Z,61.42
2018-03-29T13:58:48.100Z,60.10
2018-03-29T14:01:16.562Z,60.57
2018-03-29T14:03:45.337Z,59.83
2018-03-29T14:06:13.779Z,59.72
2018-03-29T14:08:42.469Z,59.69
2018-03-29T14:11:10.927Z,60.12
2018-03-29T14:13:39.850Z,58.76
2018-03-29T14:16:08.480Z,59.52
2018-03-29T14:18:36.872Z,59.31
2018-03-29T14:21:05.475Z,58.40
2018-03-29T14:23:34.404Z,58.19
2018-03-29T14:26:02.674Z,57.89
2018-03-29T14:28:31.430Z,56.62
2018-03-29T14:31:00.532Z,56.00
2018-03-29T14:33:29.032Z,56.68
2018-03-29T14:35:57.759Z,56.67
2018-03-29T14:38:26.405Z,56.61
2018-03-29T14:40:54.967Z,55.92
2018-03-29T14:43:24.013Z,54.55
2018-03-29T14:45:52.536Z,55.03
2018-03-29T14:48:21.253Z,55.97
2018-03-29T14:50:50.081Z,56.78
2018-03-29T14:53:18.773Z,57.53
2018-03-29T14:55:47.353Z,57.81
2018-03-29T14:58:15.744Z,58.41
2018-03-29T15:00:44.158Z,59.07
2018-03-29T15:03:14.848Z,59.54
2018-03-29T15:05:43.569Z,59.66
2018-03-29T15:08:12.417Z,60.01
2018-03-29T15:10:40.928Z,60.07
2018-03-29T15:13:09.485Z,58.74
2018-03-29T15:15:38.211Z,58.84
2018-03-29T15:18:07.045Z,57.91
2018-03-29T15:20:35.353Z,58.37
2018-03-29T15:23:04.497Z,60.22
2018-03-29T15:25:33.667Z,59.24
2018-03-29T15:28:02.326Z,59.28
2018-03-29T15:30:30.671Z,58.71
2018-03-29T15:32:59.406Z,57.97
2018-03-29T15:35:27.988Z,57.91
2018-03-29T15:37:56.679Z,57.68
2018-03-29T15:40:25.240Z,57.73
2018-03-29T15:42:53.683Z,57.94
2018-03-29T15:45:22.432Z,58.64
2018-03-29T15:47:50.847Z,58.89
2018-03-29T15:50:19.467Z,57.80
2018-03-29T15:52:47.836Z,57.70
2018-03-29T15:55:16.768Z,57.26
2018-03-29T15:57:45.111Z,56.50
2018-03-29T16:00:13.531Z,56.72
2018-03-29T16:02:42.184Z,56.95
2018-03-29T16:05:10.619Z,57.36
2018-03-29T16:07:39.097Z,56.90
2018-03-29T16:10:08.024Z,57.07
2018-03-29T16:12:36.778Z,57.01
2018-03-29T16:15:05.184Z,57.39
2018-03-29T16:17:33.543Z,57.88
2018-03-29T16:20:02.149Z,57.97
2018-03-29T16:22:30.908Z,57.56
2018-03-29T16:24:59.268Z,57.50
2018-03-29T16:27:28.255Z,58.64
2018-03-29T16:29:56.627Z,57.95
2018-03-29T16:32:25.002Z,58.11
2018-03-29T16:34:53.422Z,57.86
2018-03-29T16:37:21.949Z,57.40
2018-03-29T16:39:50.527Z,57.60
2018-03-29T16:42:19.021Z,58.09
2018-03-29T16:44:47.351Z,58.30
2018-03-29T16:47:16.160Z,58.64
2018-03-29T16:49:44.945Z,58.36
2018-03-29T16:52:13.889Z,58.94
2018-03-29T16:54:42.535Z,58.85
2018-03-29T16:57:11.006Z,58.86
2018-03-29T16:59:39.472Z,58.79
2018-03-29T17:02:08.206Z,59.38
2018-03-29T17:04:36.819Z,59.97
2018-03-29T17:07:05.316Z,60.16
2018-03-29T17:09:33.984Z,59.83
2018-03-29T17:12:02.509Z,60.22
2018-03-29T17:14:31.011Z,60.45
2018-03-29T17:16:59.700Z,61.04
2018-03-29T17:19:28.184Z,61.10
2018-03-29T17:21:56.832Z,67.30
2018-03-29T17:24:25.248Z,69.77
2018-03-29T17:26:53.790Z,73.11
2018-03-29T17:29:22.179Z,75.35
2018-03-29T17:31:51.024Z,76.07
2018-03-29T17:34:20.095Z,79.26
2018-03-29T17:36:48.635Z,81.64
2018-03-29T17:39:16.955Z,82.55
2018-03-29T17:41:45.526Z,83.54
2018-03-29T17:44:14.084Z,82.43
2018-03-29T17:46:42.746Z,84.16
2018-03-29T17:49:11.257Z,84.72
2018-03-29T17:51:40.008Z,85.43
2018-03-29T17:54:08.840Z,83.75
2018-03-29T17:56:37.732Z,82.00
2018-03-29T17:59:06.153Z,83.08
2018-03-29T18:01:34.734Z,81.78
2018-03-29T18:04:03.116Z,80.56
2018-03-29T18:06:32.000Z,84.82
2018-03-29T18:09:00.621Z,85.42
2018-03-29T18:11:28.904Z,85.44
2018-03-29T18:13:57.733Z,85.95
2018-03-29T18:16:26.725Z,87.40
2018-03-29T18:18:55.252Z,86.57
2018-03-29T18:21:24.049Z,85.25
2018-03-29T18:23:52.685Z,87.90
2018-03-29T18:26:21.653Z,88.11
2018-03-29T18:28:50.233Z,87.96
2018-03-29T18:31:20.942Z,88.40
2018-03-29T18:33:49.592Z,87.64
2018-03-29T18:36:18.379Z,89.68
2018-03-29T18:38:47.184Z,89.59
2018-03-29T18:41:16.341Z,89.91
2018-03-29T18:43:44.772Z,89.94
2018-03-29T18:46:13.651Z,91.33
2018-03-29T18:48:44.441Z,92.55
2018-03-29T18:51:17.152Z,92.23
2018-03-29T18:53:47.943Z,92.41
2018-03-29T18:56:18.383Z,92.41
2018-03-29T18:58:46.870Z,93.36
2018-03-29T19:01:15.647Z,93.64
2018-03-29T19:03:45.716Z,92.77
2018-03-29T19:06:14.432Z,92.75
2018-03-29T19:08:43.663Z,92.97
2018-03-29T19:11:12.391Z,93.94
2018-03-29T19:13:41.177Z,94.71
2018-03-29T19:16:09.856Z,94.77
2018-03-29T19:18:38.389Z,95.09
2018-03-29T19:21:07.308Z,95.32
2018-03-29T19:23:35.749Z,94.81
2018-03-29T19:26:04.732Z,94.53
2018-03-29T19:28:33.138Z,94.38
2018-03-29T19:31:01.924Z,94.03
2018-03-29T19:33:30.536Z,93.88
2018-03-29T19:35:58.992Z,94.13
2018-03-29T19:38:27.455Z,93.81
2018-03-29T19:40:56.152Z,94.16
2018-03-29T19:43:24.797Z,94.08
2018-03-29T19:45:53.351Z,94.42
2018-03-29T19:48:21.920Z,94.52
2018-03-29T19:50:50.507Z,94.58
2018-03-29T19:53:19.226Z,94.66
2018-03-29T19:55:47.868Z,95.25
2018-03-29T19:58:16.253Z,95.42
2018-03-29T20:00:45.054Z,95.75
2018-03-29T20:03:14.238Z,95.53
2018-03-29T20:05:43.426Z,96.00
2018-03-29T20:08:11.945Z,96.10
2018-03-29T20:10:40.391Z,95.80
2018-03-29T20:13:09.013Z,96.22
2018-03-29T20:15:37.524Z,95.72
2018-03-29T20:18:07.304Z,95.44
2018-03-29T20:20:37.550Z,95.00
2018-03-29T20:23:06.162Z,95.36
2018-03-29T20:25:35.403Z,95.73
2018-03-29T20:28:03.991Z,95.49
2018-03-29T20:30:32.810Z,94.85
2018-03-29T20:33:01.895Z,94.17
2018-03-29T20:35:31.171Z,94.11
2018-03-29T20:37:59.837Z,94.43
2018-03-29T20:40:28.783Z,95.08
2018-03-29T20:42:57.557Z,95.25
2018-03-29T20:45:25.870Z,95.51
2018-03-29T20:47:54.481Z,95.86
2018-03-29T20:50:23.644Z,95.48
2018-03-29T20:52:52.092Z,95.64
2018-03-29T20:55:20.576Z,95.18
2018-03-29T20:57:49.124Z,95.24
2018-03-29T21:00:17.582Z,96.20
2018-03-29T21:02:46.072Z,96.24
2018-03-29T21:05:14.533Z,95.72
2018-03-29T21:07:43.125Z,94.57
2018-03-29T21:10:11.784Z,94.21
2018-03-29T21:12:40.159Z,94.36
2018-03-29T21:15:08.689Z,94.60
2018-03-29T21:17:37.074Z,94.67
2018-03-29T21:20:05.600Z,94.20
2018-03-29T21:22:34.281Z,93.22
2018-03-29T21:25:02.768Z,92.03
2018-03-29T21:27:31.145Z,92.54
2018-03-29T21:29:59.554Z,93.35
2018-03-29T21:32:28.020Z,93.90
2018-03-29T21:34:56.377Z,94.31
2018-03-29T21:37:25.984Z,94.31
2018-03-29T21:39:54.462Z,94.83
2018-03-29T21:42:22.938Z,95.15
2018-03-29T21:44:51.472Z,94.81
2018-03-29T21:47:19.904Z,95.27
2018-03-29T21:49:48.641Z,95.88
2018-03-29T21:52:17.514Z,95.18
2018-03-29T21:54:46.299Z,94.96
2018-03-29T21:57:15.139Z,94.83
2018-03-29T21:59:43.933Z,95.52
2018-03-29T22:02:12.660Z,95.42
2018-03-29T22:04:41.303Z,94.79
2018-03-29T22:07:10.113Z,94.82
2018-03-29T22:09:38.476Z,94.76
2018-03-29T22:12:07.033Z,94.51
2018-03-29T22:14:36.086Z,94.58
2018-03-29T22:17:04.833Z,95.85
2018-03-29T22:19:33.720Z,96.24
2018-03-29T22:22:02.005Z,96.32
2018-03-29T22:24:30.825Z,96.35
2018-03-29T22:26:59.401Z,96.59
2018-03-29T22:29:27.852Z,96.57
2018-03-29T22:31:56.155Z,96.46
2018-03-29T22:34:24.489Z,95.94
2018-03-29T22:36:53.028Z,95.92
2018-03-29T22:39:21.332Z,96.32
2018-03-29T22:41:50.203Z,96.19
2018-03-29T22:44:18.639Z,96.04
2018-03-29T22:46:47.281Z,96.07
2018-03-29T22:49:15.594Z,96.00
2018-03-29T22:51:44.170Z,96.28
2018-03-29T22:54:13.039Z,96.16
2018-03-29T22:56:41.418Z,96.23
2018-03-29T22:59:10.457Z,96.31
2018-03-29T23:01:39.292Z,96.56
2018-03-29T23:04:08.149Z,96.47
2018-03-29T23:06:37.088Z,96.78
2018-03-29T23:09:06.141Z,97.04
2018-03-29T23:11:34.534Z,96.70
2018-03-29T23:14:02.969Z,96.96
2018-03-29T23:16:31.996Z,96.79
2018-03-29T23:19:00.665Z,96.70
2018-03-29T23:21:29.008Z,97.00
2018-03-29T23:23:57.468Z,96.69
2018-03-29T23:26:25.865Z,96.83
2018-03-29T23:28:54.524Z,96.07
2018-03-29T23:31:22.915Z,96.04
2018-03-29T23:33:51.340Z,96.02
2018-03-29T23:36:20.109Z,94.79
2018-03-29T23:38:49.182Z,95.27
2018-03-29T23:41:17.990Z,96.29
2018-03-29T23:43:46.935Z,96.77
2018-03-29T23:46:15.629Z,96.49
2018-03-29T23:48:44.534Z,95.84
2018-03-29T23:51:13.270Z,95.47
2018-03-29T23:53:41.650Z,95.85
2018-03-29T23:56:10.177Z,95.88
2018-03-29T23:58:38.824Z,96.70
